createdAt,value
2019-04-12T00:01:10.708Z,73.50
2019-04-12T00:03:40.917Z,72.70
2019-04-12T00:06:12.263Z,72.80
2019-04-12T00:08:42.229Z,74.20
2019-04-12T00:11:15.409Z,75.50
2019-04-12T00:13:46.926Z,75.40
2019-04-12T00:16:20.978Z,74.60
2019-04-12T00:18:53.053Z,73.70
2019-04-12T00:21:31.201Z,74.60
2019-04-12T00:24:02.019Z,75.00
2019-04-12T00:26:34.940Z,75.30
2019-04-12T00:29:12.120Z,74.40
2019-04-12T00:31:47.949Z,75.00
2019-04-12T00:34:29.390Z,73.40
2019-04-12T00:37:00.521Z,73.10
2019-04-12T00:39:34.966Z,72.40
2019-04-12T00:42:05.235Z,70.90
2019-04-12T00:44:35.339Z,69.80
2019-04-12T00:47:10.102Z,69.60
2019-04-12T00:49:41.396Z,70.80
2019-04-12T00:52:14.900Z,72.10
2019-04-12T00:54:46.666Z,72.80
2019-04-12T00:57:16.631Z,74.00
2019-04-12T00:59:47.349Z,74.60
2019-04-12T01:02:28.208Z,76.10
2019-04-12T01:05:00.837Z,77.60
2019-04-12T01:07:31.087Z,77.70
2019-04-12T01:10:01.353Z,77.30
2019-04-12T01:12:31.089Z,77.70
2019-04-12T01:15:01.323Z,76.80
2019-04-12T01:17:32.500Z,72.70
2019-04-12T01:20:04.756Z,73.80
2019-04-12T01:22:38.520Z,74.40
2019-04-12T01:25:13.252Z,73.60
2019-04-12T01:27:41.059Z,76.30
2019-04-12T01:30:12.511Z,74.00
2019-04-12T01:32:42.358Z,72.00
2019-04-12T01:35:12.491Z,74.40
2019-04-12T01:37:42.459Z,72.30
2019-04-12T01:40:12.599Z,73.80
2019-04-12T01:42:42.779Z,74.10
2019-04-12T01:45:13.197Z,71.90
2019-04-12T01:47:43.854Z,71.10
2019-04-12T01:50:15.797Z,69.60
2019-04-12T01:52:45.690Z,68.40
2019-04-12T01:55:15.841Z,68.10
2019-04-12T01:57:45.662Z,68.40
2019-04-12T02:00:15.602Z,68.20
2019-04-12T02:02:45.810Z,69.10
2019-04-12T02:05:19.361Z,68.90
2019-04-12T02:07:49.623Z,68.50
2019-04-12T02:10:19.957Z,68.70
2019-04-12T02:12:49.953Z,70.10
2019-04-12T02:15:22.468Z,71.20
2019-04-12T02:17:52.851Z,72.20
2019-04-12T02:20:24.638Z,74.80
2019-04-12T02:22:54.604Z,75.80
2019-04-12T02:25:27.257Z,76.40
2019-04-12T02:27:56.411Z,77.30
2019-04-12T02:30:29.717Z,75.40
2019-04-12T02:33:04.239Z,73.70
2019-04-12T02:35:38.707Z,72.00
2019-04-12T02:38:10.017Z,71.90
2019-04-12T02:40:41.058Z,71.70
2019-04-12T02:43:22.463Z,71.10
2019-04-12T02:45:58.391Z,69.80
2019-04-12T02:49:01.238Z,71.00
2019-04-12T02:51:54.064Z,71.30
2019-04-12T02:54:44.977Z,72.40
2019-04-12T02:57:25.766Z,71.70
2019-04-12T02:59:57.849Z,75.30
2019-04-12T03:02:28.344Z,75.40
2019-04-12T03:04:58.419Z,74.60
2019-04-12T03:07:28.317Z,73.70
2019-04-12T03:10:00.922Z,73.80
2019-04-12T03:12:34.229Z,74.90
2019-04-12T03:15:05.560Z,70.40
2019-04-12T03:17:36.132Z,73.10
2019-04-12T03:20:08.135Z,75.00
2019-04-12T03:22:38.018Z,72.30
2019-04-12T03:25:08.600Z,70.70
2019-04-12T03:27:39.079Z,73.40
2019-04-12T03:30:09.862Z,71.80
2019-04-12T03:32:40.041Z,70.50
2019-04-12T03:35:10.443Z,70.40
2019-04-12T03:37:40.418Z,69.90
2019-04-12T03:40:10.978Z,71.80
2019-04-12T03:42:40.947Z,72.10
2019-04-12T03:45:11.017Z,74.30
2019-04-12T03:47:40.916Z,72.80
2019-04-12T03:50:11.185Z,72.40
2019-04-12T03:52:41.422Z,70.60
2019-04-12T03:55:14.888Z,68.70
2019-04-12T03:57:45.387Z,67.50
2019-04-12T04:00:16.969Z,66.90
2019-04-12T04:02:48.238Z,67.60
2019-04-12T04:05:18.411Z,68.30
2019-04-12T04:07:48.431Z,68.80
2019-04-12T04:10:21.465Z,67.80
2019-04-12T04:12:51.849Z,67.60
2019-04-12T04:15:22.460Z,67.80
2019-04-12T04:18:29.079Z,65.40
2019-04-12T04:21:16.575Z,66.00
2019-04-12T04:24:03.583Z,65.10
2019-04-12T04:26:58.503Z,65.80
2019-04-12T04:29:46.601Z,65.80
2019-04-12T04:32:44.706Z,66.60
2019-04-12T04:35:16.467Z,67.10
2019-04-12T04:37:50.560Z,64.90
2019-04-12T04:40:21.678Z,64.40
2019-04-12T04:42:51.634Z,62.10
2019-04-12T04:45:22.218Z,64.00
2019-04-12T04:47:52.130Z,64.00
2019-04-12T04:50:24.487Z,64.00
2019-04-12T04:52:54.447Z,64.30
2019-04-12T04:55:25.524Z,63.40
2019-04-12T04:57:55.420Z,62.60
2019-04-12T05:00:25.350Z,62.50
2019-04-12T05:02:55.688Z,61.70
2019-04-12T05:05:25.725Z,61.20
2019-04-12T05:07:56.059Z,61.70
2019-04-12T05:10:26.130Z,62.30
2019-04-12T05:12:56.348Z,61.50
2019-04-12T05:15:28.210Z,60.50
2019-04-12T05:17:58.411Z,61.00
2019-04-12T05:20:30.790Z,60.50
2019-04-12T05:23:00.627Z,59.70
2019-04-12T05:25:30.860Z,60.20
2019-04-12T05:28:02.072Z,60.40
2019-04-12T05:30:32.794Z,61.50
2019-04-12T05:33:03.182Z,62.00
2019-04-12T05:35:36.070Z,59.40
2019-04-12T05:38:05.966Z,60.50
2019-04-12T05:40:36.220Z,59.80
2019-04-12T05:43:06.243Z,59.60
2019-04-12T05:45:48.141Z,59.40
2019-04-12T05:48:30.044Z,57.20
2019-04-12T05:51:00.646Z,56.60
2019-04-12T05:53:31.415Z,56.30
2019-04-12T05:56:02.855Z,55.60
2019-04-12T05:58:57.933Z,55.10
2019-04-12T06:01:44.913Z,54.70
2019-04-12T06:04:15.851Z,54.00
2019-04-12T06:06:47.290Z,53.10
2019-04-12T06:09:17.208Z,52.90
2019-04-12T06:11:47.267Z,51.30
2019-04-12T06:14:19.046Z,50.70
2019-04-12T06:17:00.674Z,49.90
2019-04-12T06:19:21.810Z,50.00
2019-04-12T06:22:02.481Z,50.00
2019-04-12T06:24:32.471Z,50.70
2019-04-12T06:27:27.169Z,51.30
2019-04-12T06:29:57.095Z,52.00
2019-04-12T06:32:27.428Z,52.30
2019-04-12T06:34:57.303Z,52.90
2019-04-12T06:37:27.387Z,53.00
2019-04-12T06:39:57.401Z,53.40
2019-04-12T06:42:31.593Z,53.40
2019-04-12T06:45:12.819Z,53.30
2019-04-12T06:47:43.096Z,52.50
2019-04-12T06:50:20.648Z,51.30
2019-04-12T06:52:51.663Z,51.80
2019-04-12T06:55:24.352Z,51.60
2019-04-12T06:57:55.251Z,51.00
2019-04-12T07:00:47.424Z,50.40
2019-04-12T07:03:38.469Z,50.10
2019-04-12T07:06:11.797Z,50.60
2019-04-12T07:08:44.895Z,50.80
2019-04-12T07:11:27.698Z,50.80
2019-04-12T07:14:02.025Z,51.30
2019-04-12T07:16:35.394Z,51.80
2019-04-12T07:19:10.402Z,51.70
2019-04-12T07:21:45.030Z,51.70
2019-04-12T07:24:16.004Z,51.60
2019-04-12T07:26:51.729Z,51.40
2019-04-12T07:29:23.198Z,52.00
2019-04-12T07:35:20.688Z,51.10
2019-04-12T07:37:52.451Z,50.10
2019-04-12T07:40:26.325Z,50.20
2019-04-12T07:43:07.727Z,49.80
2019-04-12T07:45:41.718Z,49.30
2019-04-12T07:48:15.929Z,47.90
2019-04-12T07:51:39.772Z,48.00
2019-04-12T07:54:24.839Z,47.80
2019-04-12T07:56:57.393Z,46.90
2019-04-12T07:59:31.832Z,46.10
2019-04-12T08:02:43.393Z,46.60
2019-04-12T08:05:42.287Z,46.00
2019-04-12T08:08:14.636Z,45.50
2019-04-12T08:10:45.785Z,45.10
2019-04-12T08:13:25.243Z,44.50
2019-04-12T08:16:01.396Z,44.30
2019-04-12T08:18:42.872Z,43.50
2019-04-12T08:21:17.411Z,43.10
2019-04-12T08:23:51.019Z,43.30
2019-04-12T08:26:21.450Z,44.40
2019-04-12T08:28:52.991Z,44.60
2019-04-12T08:31:36.371Z,44.60
2019-04-12T08:34:21.966Z,44.40
2019-04-12T08:37:01.697Z,45.00
2019-04-12T08:39:33.463Z,44.00
2019-04-12T08:42:23.442Z,43.80
2019-04-12T08:45:01.384Z,43.80
2019-04-12T08:47:32.243Z,44.20
2019-04-12T08:50:02.896Z,43.90
2019-04-12T08:52:33.398Z,43.70
2019-04-12T08:55:03.974Z,43.30
2019-04-12T08:57:37.258Z,42.80
2019-04-12T09:03:58.765Z,42.00
2019-04-12T09:06:30.391Z,42.10
2019-04-12T09:09:20.262Z,40.30
2019-04-12T09:12:15.234Z,39.40
2019-04-12T09:14:49.479Z,38.10
2019-04-12T09:17:23.386Z,38.80
2019-04-12T09:20:24.056Z,39.00
2019-04-12T09:23:32.786Z,39.20
2019-04-12T09:26:09.928Z,40.00
2019-04-12T09:28:47.909Z,40.10
2019-04-12T09:31:39.962Z,40.40
2019-04-12T09:34:17.094Z,40.50
2019-04-12T09:36:53.700Z,40.40
2019-04-12T09:39:31.197Z,40.40
2019-04-12T09:42:05.613Z,41.50
2019-04-12T09:44:41.784Z,40.40
2019-04-12T09:47:13.357Z,40.80
2019-04-12T09:49:55.414Z,40.90
2019-04-12T09:52:38.804Z,40.50
2019-04-12T09:55:14.805Z,40.80
2019-04-12T09:57:47.424Z,40.80
2019-04-12T10:00:21.360Z,41.70
2019-04-12T10:02:55.302Z,42.40
2019-04-12T10:05:30.025Z,42.70
2019-04-12T10:08:02.233Z,43.20
2019-04-12T10:10:49.535Z,43.00
2019-04-12T10:13:27.217Z,43.10
2019-04-12T10:16:02.891Z,43.50
2019-04-12T10:18:35.078Z,44.00
2019-04-12T10:21:16.881Z,44.60
2019-04-12T10:24:13.672Z,44.90
2019-04-12T10:26:55.505Z,45.10
2019-04-12T10:29:38.805Z,44.70
2019-04-12T10:32:23.088Z,44.40
2019-04-12T10:35:24.543Z,43.60
2019-04-12T10:38:47.042Z,43.70
2019-04-12T10:42:04.950Z,43.90
2019-04-12T10:44:59.278Z,44.20
2019-04-12T10:47:37.183Z,44.60
2019-04-12T10:50:27.326Z,45.10
2019-04-12T10:53:27.727Z,45.60
2019-04-12T10:56:03.149Z,45.90
2019-04-12T10:58:38.075Z,46.10
2019-04-12T11:04:30.760Z,45.80
2019-04-12T11:07:17.228Z,45.60
2019-04-12T11:10:04.123Z,45.60
2019-04-12T11:12:39.649Z,45.90
2019-04-12T11:15:21.572Z,46.10
2019-04-12T11:17:54.192Z,45.80
2019-04-12T11:20:31.989Z,45.60
2019-04-12T11:23:21.561Z,46.00
2019-04-12T11:25:55.152Z,46.60
2019-04-12T11:28:30.410Z,47.40
2019-04-12T11:31:09.671Z,47.40
2019-04-12T11:33:44.692Z,47.60
2019-04-12T11:36:20.209Z,47.50
2019-04-12T11:39:03.793Z,47.30
2019-04-12T11:41:35.878Z,47.20
2019-04-12T11:44:11.310Z,47.20
2019-04-12T11:46:45.417Z,45.80
2019-04-12T11:49:37.237Z,45.20
2019-04-12T11:52:19.940Z,45.20
2019-04-12T11:54:53.828Z,46.30
2019-04-12T11:57:31.555Z,47.00
2019-04-12T12:00:16.239Z,47.10
2019-04-12T12:03:15.151Z,46.90
2019-04-12T12:06:17.456Z,47.80
2019-04-12T12:09:27.150Z,48.40
2019-04-12T12:12:25.304Z,49.00
2019-04-12T12:15:17.609Z,48.70
2019-04-12T12:18:07.732Z,49.10
2019-04-12T12:23:33.546Z,46.80
2019-04-12T12:26:13.576Z,46.40
2019-04-12T12:28:46.795Z,45.50
2019-04-12T12:31:21.654Z,44.50
2019-04-12T12:33:59.774Z,44.00
2019-04-12T12:36:56.780Z,42.00
2019-04-12T12:39:26.571Z,41.10
2019-04-12T12:42:06.349Z,40.40
2019-04-12T12:45:10.125Z,40.60
2019-04-12T13:05:12.611Z,41.60
2019-04-12T13:08:23.617Z,41.70
2019-04-12T13:23:14.822Z,40.70
2019-04-12T13:48:35.366Z,48.30
2019-04-12T13:51:24.751Z,49.30
2019-04-12T13:58:51.216Z,50.60
2019-04-12T14:06:21.374Z,50.80
2019-04-12T14:32:44.125Z,55.00
2019-04-12T14:36:16.950Z,54.50
2019-04-12T14:39:23.850Z,54.90
2019-04-12T14:42:17.123Z,54.60
2019-04-12T14:45:55.617Z,54.20
2019-04-12T14:52:43.810Z,53.20
2019-04-12T14:55:37.382Z,53.30
2019-04-12T15:02:23.686Z,53.40
2019-04-12T15:05:54.207Z,53.70
2019-04-12T15:09:24.824Z,53.20
2019-04-12T15:15:24.152Z,52.20
2019-04-12T15:18:12.978Z,52.40
2019-04-12T15:21:20.957Z,51.80
2019-04-12T15:24:41.083Z,50.80
2019-04-12T15:28:31.479Z,50.10
2019-04-12T15:31:45.513Z,50.20
2019-04-12T15:34:41.850Z,49.70
2019-04-12T15:37:54.066Z,48.70
2019-04-12T15:41:38.159Z,48.30
2019-04-12T15:44:39.691Z,48.20
2019-04-12T15:47:53.371Z,47.90
2019-04-12T15:51:02.744Z,47.50
2019-04-12T15:54:06.268Z,48.10
2019-04-12T15:56:53.919Z,49.50
2019-04-12T15:59:28.425Z,51.00
2019-04-12T16:02:25.690Z,51.90
2019-04-12T16:08:41.258Z,51.50
2019-04-12T16:11:52.386Z,50.80
2019-04-12T16:14:58.047Z,51.40
2019-04-12T16:18:03.667Z,51.40
2019-04-12T16:20:38.982Z,50.80
2019-04-12T16:23:28.684Z,51.10
2019-04-12T16:26:19.095Z,50.70
2019-04-12T16:29:11.644Z,49.90
2019-04-12T16:32:04.688Z,48.30
2019-04-12T16:34:58.292Z,48.30
2019-04-12T16:37:50.137Z,49.10
2019-04-12T16:40:34.085Z,49.50
2019-04-12T16:43:22.776Z,50.40
2019-04-12T16:46:34.685Z,51.30
2019-04-12T16:49:51.986Z,51.60
2019-04-12T16:52:29.858Z,51.90
2019-04-12T16:58:27.324Z,53.00
2019-04-12T17:01:06.429Z,54.10
2019-04-12T17:03:48.072Z,55.70
2019-04-12T17:06:28.140Z,59.20
2019-04-12T17:09:09.444Z,63.00
2019-04-12T17:12:01.227Z,66.00
2019-04-12T17:14:44.119Z,71.40
2019-04-12T17:17:19.222Z,74.90
2019-04-12T17:20:20.831Z,78.20
2019-04-12T17:23:07.853Z,80.30
2019-04-12T17:26:47.974Z,81.30
2019-04-12T17:33:17.231Z,86.60
2019-04-12T17:35:58.208Z,86.70
2019-04-12T17:38:45.491Z,82.50
2019-04-12T17:41:37.860Z,81.00
2019-04-12T17:44:35.485Z,67.90
2019-04-12T17:47:24.870Z,67.20
2019-04-12T17:50:28.076Z,67.70
2019-04-12T17:53:32.017Z,70.30
2019-04-12T17:56:27.251Z,68.50
2019-04-12T17:59:23.392Z,68.70
2019-04-12T18:02:11.569Z,69.50
2019-04-12T18:05:11.115Z,69.00
2019-04-12T18:12:49.037Z,72.00
2019-04-12T18:18:46.450Z,75.80
2019-04-12T18:21:25.473Z,76.80
2019-04-12T18:24:08.649Z,75.70
2019-04-12T18:34:15.902Z,82.50
2019-04-12T18:37:00.418Z,85.00
2019-04-12T18:39:49.996Z,87.30
2019-04-12T18:42:33.660Z,87.30
2019-04-12T18:45:27.274Z,87.90
2019-04-12T19:16:55.250Z,85.20
2019-04-12T19:20:25.894Z,85.30
2019-04-12T19:27:23.455Z,89.30
2019-04-12T19:34:19.551Z,86.60
2019-04-12T19:37:38.004Z,85.80
2019-04-12T19:51:40.961Z,91.10
2019-04-12T19:55:16.609Z,91.50
2019-04-12T19:58:24.820Z,91.40
2019-04-12T20:06:01.056Z,90.60
2019-04-12T20:09:14.529Z,89.50
2019-04-12T20:11:44.739Z,88.70
2019-04-12T20:14:17.961Z,88.40
2019-04-12T20:17:21.470Z,89.70
2019-04-12T20:20:03.096Z,90.50
2019-04-12T20:22:40.175Z,91.60
2019-04-12T20:25:24.042Z,91.20
2019-04-12T20:28:03.101Z,91.90
2019-04-12T20:30:56.071Z,91.90
2019-04-12T20:33:27.147Z,92.90
2019-04-12T20:36:18.179Z,92.70
2019-04-12T20:39:26.484Z,93.10
2019-04-12T20:41:59.075Z,93.30
2019-04-12T20:44:38.436Z,93.90
2019-04-12T20:47:31.320Z,93.90
2019-04-12T20:50:02.432Z,93.50
2019-04-12T20:52:38.105Z,92.80
2019-04-12T20:55:10.662Z,92.40
2019-04-12T20:57:50.131Z,91.40
2019-04-12T21:00:24.267Z,90.80
2019-04-12T21:02:55.481Z,92.50
2019-04-12T21:05:27.113Z,92.10
2019-04-12T21:07:56.923Z,92.70
2019-04-12T21:10:33.676Z,91.50
2019-04-12T21:13:06.549Z,92.10
2019-04-12T21:15:42.714Z,92.30
2019-04-12T21:18:19.211Z,92.60
2019-04-12T21:20:54.825Z,93.20
2019-04-12T21:23:32.173Z,94.00
2019-04-12T21:26:10.713Z,94.30
2019-04-12T21:28:50.862Z,96.00
2019-04-12T21:31:26.034Z,95.00
2019-04-12T21:34:11.752Z,94.90
2019-04-12T21:36:44.089Z,96.10
2019-04-12T21:39:15.415Z,95.30
2019-04-12T21:41:48.147Z,95.90
2019-04-12T21:44:19.096Z,96.10
2019-04-12T21:47:01.359Z,96.00
2019-04-12T21:49:46.961Z,96.00
2019-04-12T21:52:29.732Z,95.50
2019-04-12T21:55:11.182Z,97.00
2019-04-12T21:57:47.690Z,97.00
2019-04-12T22:00:54.375Z,97.60
2019-04-12T22:03:41.581Z,97.40
2019-04-12T22:06:08.153Z,97.10
2019-04-12T22:08:44.541Z,98.90
2019-04-12T22:11:17.040Z,97.80
2019-04-12T22:13:51.283Z,99.30
2019-04-12T22:16:23.583Z,98.80
2019-04-12T22:18:55.285Z,98.80
2019-04-12T22:21:29.546Z,99.90
2019-04-12T22:24:00.665Z,99.20
2019-04-12T22:26:33.193Z,98.20
2019-04-12T22:29:07.384Z,98.90
2019-04-12T22:31:41.498Z,99.90
2019-04-12T22:34:18.623Z,99.00
2019-04-12T22:37:04.509Z,99.10
2019-04-12T22:39:35.188Z,99.30
2019-04-12T22:42:05.171Z,98.90
2019-04-12T22:44:51.236Z,99.70
2019-04-12T22:47:23.793Z,98.90
2019-04-12T22:49:54.405Z,99.30
2019-04-12T22:52:25.602Z,99.40
2019-04-12T22:54:59.818Z,99.60
2019-04-12T22:57:35.944Z,99.60
2019-04-12T23:00:06.440Z,99.90
2019-04-12T23:02:36.824Z,99.90
2019-04-12T23:05:09.474Z,99.90
2019-04-12T23:07:56.661Z,99.90
2019-04-12T23:10:29.835Z,99.90
2019-04-12T23:13:00.083Z,99.90
2019-04-12T23:15:35.890Z,99.90
2019-04-12T23:18:07.991Z,99.90
2019-04-12T23:20:54.032Z,99.90
2019-04-12T23:23:38.375Z,99.60
2019-04-12T23:26:08.868Z,99.70
2019-04-12T23:28:39.146Z,99.90
2019-04-12T23:31:37.383Z,99.90
2019-04-12T23:34:31.261Z,99.90
2019-04-12T23:37:21.348Z,99.90
2019-04-12T23:39:59.928Z,99.90
2019-04-12T23:42:38.944Z,99.90
2019-04-12T23:45:13.781Z,99.90
2019-04-12T23:48:08.960Z,99.90
2019-04-12T23:50:42.824Z,99.90
2019-04-12T23:53:21.053Z,99.90
2019-04-12T23:55:54.243Z,99.90
2019-04-12T23:58:50.758Z,99.90
